BAW75EV LICC-EGPH
Flight info
| Callsign | BAW75EV |
|---|---|
| Flight time | N/A |
| Altitude | 32000 |
| Route | BUDIN DCT DIRED DCT LOMED/N0452F340 DCT IPLUB DCT OSBUL DCT ABESI DCT UTAVO DCT ELMUR L613 HOC DCT LUL DCT RLP DCT ROTSI DCT KOTUN DCT AMAXA DCT VESAN DCT RATUK DCT SOVAT L613 LEHOC DCT INPIP |
| Aircraft | A321/M-SDE3FGHIRWY/LB1 |
Departure
| Time | 2026-04-27 11:06 |
|---|---|
| Airport | Catania-Fontanarossa Airport (LICC) |
Arrival
| Time | N/A |
|---|---|
| Airport | Edinburgh Airport (EGPH) |
| Time | Latitude | Longitude | Altitude | Speed | Heading |
|---|---|---|---|---|---|
| 2026-04-27 10:37 | 37.46926 | 15.06763 | 32 ft | 0 kts | 354° |
| 2026-04-27 10:58 | 37.46918 | 15.06764 | 31 ft | 4 kts | 352° |
| 2026-04-27 10:58 | 37.46891 | 15.06771 | 31 ft | 4 kts | 339° |
| 2026-04-27 10:58 | 37.46869 | 15.06786 | 31 ft | 4 kts | 312° |
| 2026-04-27 10:58 | 37.46859 | 15.06810 | 30 ft | 2 kts | 264° |
| 2026-04-27 10:59 | 37.46859 | 15.06812 | 30 ft | 0 kts | 264° |
| 2026-04-27 11:00 | 37.46859 | 15.06811 | 30 ft | 0 kts | 264° |
| 2026-04-27 11:01 | 37.46858 | 15.06803 | 29 ft | 3 kts | 264° |
| 2026-04-27 11:01 | 37.46855 | 15.06767 | 35 ft | 6 kts | 264° |
| 2026-04-27 11:01 | 37.46844 | 15.06646 | 32 ft | 17 kts | 263° |
| 2026-04-27 11:01 | 37.46831 | 15.06501 | 32 ft | 17 kts | 264° |
| 2026-04-27 11:02 | 37.46819 | 15.06355 | 32 ft | 17 kts | 264° |
| 2026-04-27 11:02 | 37.46807 | 15.06210 | 32 ft | 17 kts | 265° |
| 2026-04-27 11:02 | 37.46796 | 15.06065 | 32 ft | 17 kts | 264° |
| 2026-04-27 11:02 | 37.46784 | 15.05919 | 32 ft | 17 kts | 264° |
| 2026-04-27 11:03 | 37.46770 | 15.05772 | 32 ft | 17 kts | 263° |
| 2026-04-27 11:03 | 37.46756 | 15.05627 | 32 ft | 17 kts | 263° |
| 2026-04-27 11:03 | 37.46743 | 15.05480 | 32 ft | 17 kts | 264° |
| 2026-04-27 11:03 | 37.46721 | 15.05336 | 30 ft | 17 kts | 243° |
| 2026-04-27 11:04 | 37.46663 | 15.05252 | 32 ft | 0 kts | 223° |
| 2026-04-27 11:04 | 37.46660 | 15.05248 | 32 ft | 4 kts | 223° |
| 2026-04-27 11:05 | 37.46586 | 15.05206 | 35 ft | 14 kts | 162° |
| 2026-04-27 11:05 | 37.46568 | 15.05330 | 35 ft | 22 kts | 85° |
| 2026-04-27 11:05 | 37.46611 | 15.05778 | 34 ft | 89 kts | 83° |
| 2026-04-27 11:05 | 37.46694 | 15.06841 | 36 ft | 152 kts | 84° |
| 2026-04-27 11:06 | 37.46805 | 15.08302 | 527 ft | 172 kts | 84° |
| 2026-04-27 11:06 | 37.46959 | 15.09794 | 1419 ft | 171 kts | 83° |
| 2026-04-27 11:06 | 37.47167 | 15.11340 | 1923 ft | 190 kts | 82° |
| 2026-04-27 11:06 | 37.47407 | 15.13058 | 2321 ft | 207 kts | 81° |
| 2026-04-27 11:07 | 37.47673 | 15.14943 | 2456 ft | 231 kts | 81° |
| 2026-04-27 11:07 | 37.47966 | 15.17027 | 2712 ft | 249 kts | 81° |
| 2026-04-27 11:07 | 37.48271 | 15.19201 | 3225 ft | 255 kts | 81° |
| 2026-04-27 11:07 | 37.48583 | 15.21418 | 3812 ft | 258 kts | 81° |
| 2026-04-27 11:08 | 37.48897 | 15.23652 | 4438 ft | 261 kts | 81° |
| 2026-04-27 11:08 | 37.49221 | 15.25913 | 5057 ft | 263 kts | 78° |
| 2026-04-27 11:08 | 37.49875 | 15.28072 | 5639 ft | 267 kts | 59° |
| 2026-04-27 11:08 | 37.51049 | 15.29913 | 6103 ft | 276 kts | 41° |
| 2026-04-27 11:09 | 37.52646 | 15.31283 | 6611 ft | 281 kts | 31° |
| 2026-04-27 11:09 | 37.54324 | 15.32567 | 7180 ft | 283 kts | 31° |
| 2026-04-27 11:09 | 37.56008 | 15.33873 | 7762 ft | 285 kts | 31° |
| 2026-04-27 11:09 | 37.57696 | 15.35195 | 8367 ft | 287 kts | 31° |
| 2026-04-27 11:10 | 37.59394 | 15.36531 | 8973 ft | 288 kts | 31° |
| 2026-04-27 11:10 | 37.61078 | 15.37859 | 9547 ft | 290 kts | 31° |
| 2026-04-27 11:10 | 37.62796 | 15.39217 | 10115 ft | 293 kts | 30° |
| 2026-04-27 11:10 | 37.64571 | 15.40620 | 10300 ft | 310 kts | 31° |
| 2026-04-27 11:11 | 37.66450 | 15.42098 | 10427 ft | 327 kts | 31° |
| 2026-04-27 11:11 | 37.68469 | 15.43557 | 10552 ft | 342 kts | 23° |
| 2026-04-27 11:11 | 37.70785 | 15.44496 | 10674 ft | 357 kts | 10° |
| 2026-04-27 11:11 | 37.73307 | 15.44734 | 10795 ft | 370 kts | 356° |
| 2026-04-27 11:12 | 37.75873 | 15.44175 | 11073 ft | 378 kts | 342° |
| 2026-04-27 11:12 | 37.78341 | 15.42992 | 11478 ft | 381 kts | 338° |
| 2026-04-27 11:12 | 37.80817 | 15.41754 | 11913 ft | 384 kts | 338° |
| 2026-04-27 11:12 | 37.83315 | 15.40508 | 12364 ft | 387 kts | 338° |
| 2026-04-27 11:13 | 37.85834 | 15.39254 | 12823 ft | 390 kts | 338° |
| 2026-04-27 11:13 | 37.88362 | 15.37993 | 13276 ft | 392 kts | 338° |
| 2026-04-27 11:13 | 37.90915 | 15.36716 | 13726 ft | 395 kts | 338° |
| 2026-04-27 11:13 | 37.93447 | 15.35446 | 14143 ft | 398 kts | 338° |
| 2026-04-27 11:14 | 37.96030 | 15.34148 | 14558 ft | 401 kts | 338° |
| 2026-04-27 11:14 | 37.98626 | 15.32841 | 14982 ft | 403 kts | 337° |
| 2026-04-27 11:14 | 38.01240 | 15.31523 | 15390 ft | 405 kts | 337° |
| 2026-04-27 11:14 | 38.03872 | 15.30195 | 15806 ft | 407 kts | 337° |
| 2026-04-27 11:15 | 38.06510 | 15.28865 | 16214 ft | 409 kts | 337° |
| 2026-04-27 11:15 | 38.09166 | 15.27524 | 16632 ft | 412 kts | 337° |
| 2026-04-27 11:15 | 38.11833 | 15.26176 | 17011 ft | 414 kts | 337° |
| 2026-04-27 11:15 | 38.14517 | 15.24820 | 17392 ft | 416 kts | 337° |
| 2026-04-27 11:16 | 38.17176 | 15.23475 | 17770 ft | 418 kts | 337° |
| 2026-04-27 11:16 | 38.19883 | 15.22105 | 18153 ft | 420 kts | 337° |
| 2026-04-27 11:16 | 38.22610 | 15.20725 | 18509 ft | 423 kts | 337° |
| 2026-04-27 11:16 | 38.25345 | 15.19343 | 18830 ft | 424 kts | 337° |
| 2026-04-27 11:17 | 38.28097 | 15.17951 | 19149 ft | 426 kts | 337° |
| 2026-04-27 11:17 | 38.30862 | 15.16549 | 19472 ft | 428 kts | 337° |
| 2026-04-27 11:17 | 38.33639 | 15.15141 | 19794 ft | 430 kts | 337° |
| 2026-04-27 11:17 | 38.36424 | 15.13728 | 20111 ft | 432 kts | 337° |
| 2026-04-27 11:18 | 38.39225 | 15.12302 | 20428 ft | 434 kts | 337° |
| 2026-04-27 11:18 | 38.42031 | 15.10869 | 20746 ft | 436 kts | 337° |
| 2026-04-27 11:18 | 38.44851 | 15.09426 | 21056 ft | 437 kts | 337° |
| 2026-04-27 11:18 | 38.47686 | 15.07980 | 21370 ft | 439 kts | 337° |
| 2026-04-27 11:19 | 38.50534 | 15.06530 | 21677 ft | 441 kts | 337° |
| 2026-04-27 11:19 | 38.53386 | 15.05080 | 21978 ft | 443 kts | 337° |
| 2026-04-27 11:19 | 38.56257 | 15.03619 | 22274 ft | 444 kts | 337° |
| 2026-04-27 11:19 | 38.59134 | 15.02151 | 22569 ft | 446 kts | 337° |
| 2026-04-27 11:20 | 38.61988 | 15.00688 | 22866 ft | 448 kts | 337° |
| 2026-04-27 11:20 | 38.64886 | 14.99200 | 23164 ft | 449 kts | 337° |
| 2026-04-27 11:20 | 38.67797 | 14.97704 | 23455 ft | 451 kts | 337° |
| 2026-04-27 11:20 | 38.70714 | 14.96203 | 23747 ft | 453 kts | 337° |
| 2026-04-27 11:21 | 38.73644 | 14.94695 | 23990 ft | 454 kts | 337° |
| 2026-04-27 11:21 | 38.76578 | 14.93184 | 24235 ft | 456 kts | 337° |
| 2026-04-27 11:21 | 38.79530 | 14.91659 | 24485 ft | 457 kts | 337° |
| 2026-04-27 11:21 | 38.82480 | 14.90135 | 24730 ft | 458 kts | 337° |
| 2026-04-27 11:22 | 38.85446 | 14.88607 | 24963 ft | 460 kts | 337° |
| 2026-04-27 11:22 | 38.88423 | 14.87079 | 25184 ft | 461 kts | 337° |
| 2026-04-27 11:22 | 38.91404 | 14.85544 | 25406 ft | 462 kts | 337° |
| 2026-04-27 11:22 | 38.94391 | 14.83998 | 25620 ft | 463 kts | 337° |
| 2026-04-27 11:23 | 38.97385 | 14.82446 | 25823 ft | 465 kts | 337° |
| 2026-04-27 11:23 | 39.00386 | 14.80889 | 26013 ft | 466 kts | 337° |
| 2026-04-27 11:23 | 39.03395 | 14.79329 | 26203 ft | 467 kts | 337° |
| 2026-04-27 11:23 | 39.06397 | 14.77770 | 26477 ft | 465 kts | 337° |
| 2026-04-27 11:24 | 39.09392 | 14.76213 | 26747 ft | 464 kts | 337° |
| 2026-04-27 11:24 | 39.12392 | 14.74649 | 27008 ft | 464 kts | 337° |
| 2026-04-27 11:24 | 39.14373 | 14.73614 | 27181 ft | 463 kts | 337° |
| 2026-04-27 11:24 | 39.16471 | 14.72521 | 27364 ft | 463 kts | 337° |
| 2026-04-27 11:25 | 39.19450 | 14.70973 | 27634 ft | 462 kts | 337° |
| 2026-04-27 11:25 | 39.22395 | 14.69437 | 27888 ft | 461 kts | 337° |
| 2026-04-27 11:25 | 39.25371 | 14.67880 | 28145 ft | 461 kts | 337° |
| 2026-04-27 11:25 | 39.28378 | 14.66305 | 28415 ft | 460 kts | 337° |
| 2026-04-27 11:26 | 39.31300 | 14.64773 | 28668 ft | 459 kts | 337° |
| 2026-04-27 11:26 | 39.34260 | 14.63222 | 28924 ft | 459 kts | 337° |
| 2026-04-27 11:26 | 39.37217 | 14.61676 | 29184 ft | 458 kts | 337° |
| 2026-04-27 11:26 | 39.40173 | 14.60129 | 29434 ft | 458 kts | 337° |
| 2026-04-27 11:27 | 39.43123 | 14.58583 | 29696 ft | 457 kts | 337° |
| 2026-04-27 11:27 | 39.46071 | 14.57038 | 29941 ft | 456 kts | 337° |
| 2026-04-27 11:27 | 39.49018 | 14.55490 | 30201 ft | 456 kts | 337° |
| 2026-04-27 11:27 | 39.51952 | 14.53944 | 30424 ft | 455 kts | 337° |
| 2026-04-27 11:28 | 39.54886 | 14.52395 | 30641 ft | 454 kts | 337° |
| 2026-04-27 11:28 | 39.57732 | 14.50634 | 30841 ft | 453 kts | 329° |
| 2026-04-27 11:28 | 39.60471 | 14.48622 | 31034 ft | 452 kts | 329° |
| 2026-04-27 11:28 | 39.63215 | 14.46616 | 31239 ft | 452 kts | 330° |
| 2026-04-27 11:29 | 39.65955 | 14.44620 | 31445 ft | 451 kts | 330° |
| 2026-04-27 11:29 | 39.68690 | 14.42633 | 31653 ft | 450 kts | 330° |
| 2026-04-27 11:29 | 39.71424 | 14.40646 | 31854 ft | 450 kts | 330° |
| 2026-04-27 11:29 | 39.74153 | 14.38661 | 32053 ft | 449 kts | 330° |
| 2026-04-27 11:30 | 39.76875 | 14.36679 | 32263 ft | 448 kts | 330° |
| 2026-04-27 11:30 | 39.79561 | 14.34720 | 32457 ft | 448 kts | 330° |
| 2026-04-27 11:30 | 39.82312 | 14.32709 | 32654 ft | 447 kts | 329° |
| 2026-04-27 11:30 | 39.85020 | 14.30723 | 32835 ft | 447 kts | 329° |
| 2026-04-27 11:31 | 39.87730 | 14.28732 | 33025 ft | 446 kts | 329° |
| 2026-04-27 11:31 | 39.90392 | 14.26772 | 33205 ft | 446 kts | 329° |
| 2026-04-27 11:31 | 39.93091 | 14.24788 | 33390 ft | 445 kts | 329° |
| 2026-04-27 11:31 | 39.95789 | 14.22805 | 33566 ft | 445 kts | 329° |
| 2026-04-27 11:32 | 39.98489 | 14.20819 | 33743 ft | 444 kts | 329° |
| 2026-04-27 11:32 | 40.01179 | 14.18838 | 33911 ft | 444 kts | 329° |
| 2026-04-27 11:32 | 40.03871 | 14.16852 | 34108 ft | 443 kts | 329° |
| 2026-04-27 11:32 | 40.06559 | 14.14868 | 34167 ft | 443 kts | 329° |
| 2026-04-27 11:33 | 40.11914 | 14.10911 | 34166 ft | 442 kts | 329° |
| 2026-04-27 11:33 | 40.17270 | 14.06939 | 34166 ft | 442 kts | 329° |
| 2026-04-27 11:34 | 40.22627 | 14.02959 | 34168 ft | 442 kts | 329° |
| 2026-04-27 11:34 | 40.27977 | 13.98982 | 34168 ft | 442 kts | 329° |
| 2026-04-27 11:35 | 40.33302 | 13.95020 | 34170 ft | 443 kts | 329° |
| 2026-04-27 11:35 | 40.38666 | 13.91020 | 34178 ft | 443 kts | 329° |
| 2026-04-27 11:36 | 40.44022 | 13.87014 | 34183 ft | 443 kts | 329° |
| 2026-04-27 11:36 | 40.49373 | 13.83006 | 34187 ft | 443 kts | 329° |
| 2026-04-27 11:37 | 40.54727 | 13.78994 | 34187 ft | 443 kts | 329° |
| 2026-04-27 11:37 | 40.60071 | 13.74973 | 34185 ft | 442 kts | 328° |
| 2026-04-27 11:38 | 40.65412 | 13.70950 | 34185 ft | 442 kts | 329° |
| 2026-04-27 11:38 | 40.70750 | 13.66926 | 34186 ft | 442 kts | 328° |
| 2026-04-27 11:39 | 40.76085 | 13.62899 | 34185 ft | 442 kts | 328° |
| 2026-04-27 11:39 | 40.81386 | 13.58878 | 34186 ft | 442 kts | 328° |
| 2026-04-27 11:40 | 40.86711 | 13.54830 | 34185 ft | 441 kts | 328° |
| 2026-04-27 11:40 | 40.92036 | 13.50788 | 34191 ft | 441 kts | 328° |
| 2026-04-27 11:41 | 40.97350 | 13.46745 | 34189 ft | 441 kts | 328° |
| 2026-04-27 11:41 | 41.02661 | 13.42687 | 34184 ft | 440 kts | 328° |
| 2026-04-27 11:42 | 41.07968 | 13.38627 | 34182 ft | 440 kts | 328° |
| 2026-04-27 11:42 | 41.13277 | 13.34565 | 34186 ft | 440 kts | 328° |
| 2026-04-27 11:43 | 41.18567 | 13.30502 | 34182 ft | 439 kts | 328° |
| 2026-04-27 11:43 | 41.23853 | 13.26438 | 34182 ft | 439 kts | 328° |
| 2026-04-27 11:44 | 41.29136 | 13.22370 | 34183 ft | 439 kts | 328° |
| 2026-04-27 11:44 | 41.34379 | 13.18325 | 34181 ft | 438 kts | 328° |
| 2026-04-27 11:45 | 41.38795 | 13.14912 | 34184 ft | 438 kts | 328° |
| 2026-04-27 11:45 | 41.44911 | 13.10172 | 34187 ft | 437 kts | 327° |
| 2026-04-27 11:46 | 41.50167 | 13.06094 | 34190 ft | 437 kts | 328° |
| 2026-04-27 11:46 | 41.55419 | 13.02016 | 34190 ft | 436 kts | 327° |
| 2026-04-27 11:47 | 41.60657 | 12.97934 | 34189 ft | 436 kts | 327° |
| 2026-04-27 11:47 | 41.65898 | 12.93845 | 34185 ft | 436 kts | 327° |
| 2026-04-27 11:48 | 41.70250 | 12.90447 | 34181 ft | 435 kts | 327° |
| 2026-04-27 11:48 | 41.75473 | 12.86350 | 34179 ft | 435 kts | 327° |
| 2026-04-27 11:49 | 41.80705 | 12.82241 | 34184 ft | 435 kts | 327° |
| 2026-04-27 11:49 | 41.85923 | 12.78144 | 34207 ft | 435 kts | 327° |
| 2026-04-27 11:50 | 41.91147 | 12.74035 | 34216 ft | 435 kts | 327° |
| 2026-04-27 11:50 | 41.96360 | 12.69924 | 34218 ft | 435 kts | 327° |
| 2026-04-27 11:51 | 42.01540 | 12.65824 | 34216 ft | 434 kts | 327° |
| 2026-04-27 11:52 | 42.09352 | 12.59616 | 34210 ft | 434 kts | 327° |
| 2026-04-27 11:52 | 42.14556 | 12.55468 | 34184 ft | 434 kts | 327° |
| 2026-04-27 11:53 | 42.19759 | 12.51344 | 34175 ft | 434 kts | 327° |
| 2026-04-27 11:53 | 42.24956 | 12.47208 | 34168 ft | 433 kts | 327° |
| 2026-04-27 11:54 | 42.30147 | 12.43053 | 34169 ft | 433 kts | 327° |
| 2026-04-27 11:54 | 42.35335 | 12.38894 | 34170 ft | 433 kts | 327° |
| 2026-04-27 11:55 | 42.40485 | 12.34765 | 34173 ft | 433 kts | 327° |
| 2026-04-27 11:55 | 42.45677 | 12.30595 | 34175 ft | 434 kts | 327° |
| 2026-04-27 11:56 | 42.50867 | 12.26418 | 34174 ft | 434 kts | 327° |
| 2026-04-27 11:56 | 42.56058 | 12.22228 | 34172 ft | 434 kts | 327° |
| 2026-04-27 11:57 | 42.61253 | 12.18018 | 34168 ft | 435 kts | 328° |
| 2026-04-27 11:57 | 42.66465 | 12.13805 | 34160 ft | 436 kts | 328° |
| 2026-04-27 11:58 | 42.71677 | 12.09571 | 34147 ft | 436 kts | 328° |
| 2026-04-27 11:58 | 42.76888 | 12.05326 | 34136 ft | 437 kts | 328° |
| 2026-04-27 11:59 | 42.82108 | 12.01072 | 34136 ft | 438 kts | 328° |
| 2026-04-27 11:59 | 42.87340 | 11.96811 | 34139 ft | 438 kts | 328° |
| 2026-04-27 12:00 | 42.92576 | 11.92525 | 34140 ft | 439 kts | 328° |
| 2026-04-27 12:00 | 42.97783 | 11.88247 | 34139 ft | 439 kts | 328° |
| 2026-04-27 12:01 | 43.03030 | 11.83943 | 34140 ft | 440 kts | 328° |
| 2026-04-27 12:01 | 43.08284 | 11.79621 | 34141 ft | 440 kts | 329° |
| 2026-04-27 12:02 | 43.13535 | 11.75289 | 34145 ft | 440 kts | 329° |
| 2026-04-27 12:02 | 43.18754 | 11.70966 | 34138 ft | 440 kts | 328° |
| 2026-04-27 12:03 | 43.23993 | 11.66629 | 34136 ft | 440 kts | 329° |
| 2026-04-27 12:03 | 43.29237 | 11.62284 | 34141 ft | 440 kts | 329° |
| 2026-04-27 12:04 | 43.34482 | 11.57919 | 34143 ft | 440 kts | 329° |
| 2026-04-27 12:04 | 43.39714 | 11.53552 | 34141 ft | 440 kts | 329° |
| 2026-04-27 12:05 | 43.44920 | 11.49215 | 34141 ft | 440 kts | 329° |
| 2026-04-27 12:05 | 43.50154 | 11.44840 | 34139 ft | 440 kts | 329° |
| 2026-04-27 12:06 | 43.55382 | 11.40452 | 34143 ft | 440 kts | 329° |
| 2026-04-27 12:06 | 43.60606 | 11.36056 | 34149 ft | 440 kts | 329° |
| 2026-04-27 12:07 | 43.65831 | 11.31655 | 34150 ft | 440 kts | 329° |
| 2026-04-27 12:07 | 43.71020 | 11.27282 | 34152 ft | 439 kts | 329° |
| 2026-04-27 12:08 | 43.76236 | 11.22868 | 34152 ft | 439 kts | 329° |
| 2026-04-27 12:08 | 43.81453 | 11.18456 | 34154 ft | 439 kts | 329° |
| 2026-04-27 12:09 | 43.86675 | 11.14019 | 34153 ft | 439 kts | 329° |
| 2026-04-27 12:09 | 43.91891 | 11.09584 | 34151 ft | 439 kts | 329° |
| 2026-04-27 12:10 | 43.97072 | 11.05168 | 34151 ft | 440 kts | 329° |
| 2026-04-27 12:10 | 44.02280 | 11.00719 | 34146 ft | 439 kts | 328° |
| 2026-04-27 12:11 | 44.07469 | 10.96215 | 34142 ft | 439 kts | 328° |
| 2026-04-27 12:11 | 44.12625 | 10.91662 | 34142 ft | 439 kts | 328° |
| 2026-04-27 12:12 | 44.17794 | 10.87096 | 34139 ft | 439 kts | 328° |
| 2026-04-27 12:12 | 44.22961 | 10.82546 | 34142 ft | 439 kts | 328° |
| 2026-04-27 12:13 | 44.28122 | 10.77985 | 34148 ft | 439 kts | 328° |
| 2026-04-27 12:13 | 44.33272 | 10.73403 | 34148 ft | 439 kts | 328° |
| 2026-04-27 12:14 | 44.38423 | 10.68799 | 34158 ft | 439 kts | 328° |
| 2026-04-27 12:14 | 44.43571 | 10.64198 | 34163 ft | 439 kts | 328° |
| 2026-04-27 12:15 | 44.48681 | 10.59617 | 34164 ft | 439 kts | 327° |
| 2026-04-27 12:15 | 44.53830 | 10.54994 | 34162 ft | 438 kts | 327° |
| 2026-04-27 12:16 | 44.58963 | 10.50378 | 34152 ft | 438 kts | 327° |
| 2026-04-27 12:16 | 44.64092 | 10.45761 | 34147 ft | 438 kts | 327° |
| 2026-04-27 12:17 | 44.69223 | 10.41121 | 34140 ft | 438 kts | 327° |
| 2026-04-27 12:17 | 44.74351 | 10.36478 | 34136 ft | 438 kts | 327° |
| 2026-04-27 12:18 | 44.79477 | 10.31836 | 34134 ft | 438 kts | 327° |
| 2026-04-27 12:18 | 44.84596 | 10.27181 | 34133 ft | 438 kts | 327° |
| 2026-04-27 12:19 | 44.89711 | 10.22523 | 34136 ft | 437 kts | 327° |
| 2026-04-27 12:19 | 44.94788 | 10.17896 | 34136 ft | 437 kts | 327° |
| 2026-04-27 12:20 | 44.99892 | 10.13231 | 34139 ft | 437 kts | 327° |
| 2026-04-27 12:20 | 45.04992 | 10.08555 | 34142 ft | 436 kts | 327° |
| 2026-04-27 12:21 | 45.10084 | 10.03881 | 34135 ft | 436 kts | 327° |
| 2026-04-27 12:21 | 45.15175 | 9.99191 | 34132 ft | 436 kts | 327° |
| 2026-04-27 12:22 | 45.20264 | 9.94502 | 34137 ft | 436 kts | 327° |
| 2026-04-27 12:22 | 45.25354 | 9.89807 | 34136 ft | 436 kts | 327° |
| 2026-04-27 12:23 | 45.30401 | 9.85132 | 34135 ft | 436 kts | 327° |
| 2026-04-27 12:23 | 45.35472 | 9.80421 | 34159 ft | 435 kts | 327° |
| 2026-04-27 12:24 | 45.40541 | 9.75703 | 34174 ft | 435 kts | 327° |
| 2026-04-27 12:24 | 45.45604 | 9.70981 | 34187 ft | 435 kts | 327° |
| 2026-04-27 12:25 | 45.50666 | 9.66258 | 34201 ft | 435 kts | 327° |
| 2026-04-27 12:25 | 45.55715 | 9.61529 | 34207 ft | 434 kts | 327° |
| 2026-04-27 12:26 | 45.60763 | 9.56785 | 34208 ft | 434 kts | 327° |
| 2026-04-27 12:26 | 45.65821 | 9.52036 | 34206 ft | 434 kts | 327° |
| 2026-04-27 12:27 | 45.70865 | 9.47278 | 34195 ft | 434 kts | 327° |
| 2026-04-27 12:27 | 45.75876 | 9.42534 | 34151 ft | 434 kts | 327° |
| 2026-04-27 12:28 | 45.80921 | 9.37760 | 34146 ft | 434 kts | 327° |
| 2026-04-27 12:28 | 45.85962 | 9.32981 | 34142 ft | 434 kts | 326° |
| 2026-04-27 12:29 | 45.91006 | 9.28184 | 34139 ft | 434 kts | 327° |
| 2026-04-27 12:29 | 45.96042 | 9.23386 | 34139 ft | 434 kts | 326° |
| 2026-04-27 12:30 | 46.01071 | 9.18586 | 34133 ft | 434 kts | 326° |
| 2026-04-27 12:30 | 46.06103 | 9.13762 | 34132 ft | 434 kts | 326° |
| 2026-04-27 12:31 | 46.11125 | 9.08934 | 34112 ft | 434 kts | 326° |
| 2026-04-27 12:31 | 46.16427 | 9.04936 | 34106 ft | 434 kts | 341° |
| 2026-04-27 12:32 | 46.22386 | 9.03424 | 34105 ft | 436 kts | 353° |
| 2026-04-27 12:32 | 46.28402 | 9.02626 | 34107 ft | 436 kts | 353° |
| 2026-04-27 12:33 | 46.34460 | 9.01801 | 34117 ft | 437 kts | 353° |
| 2026-04-27 12:33 | 46.40516 | 9.00975 | 34127 ft | 437 kts | 353° |
| 2026-04-27 12:34 | 46.46564 | 9.00162 | 34136 ft | 437 kts | 353° |
| 2026-04-27 12:34 | 46.52593 | 8.99367 | 34155 ft | 438 kts | 353° |
| 2026-04-27 12:35 | 46.58666 | 8.98548 | 34163 ft | 437 kts | 353° |
| 2026-04-27 12:35 | 46.64729 | 8.97716 | 34167 ft | 438 kts | 353° |
| 2026-04-27 12:36 | 46.70788 | 8.96895 | 34169 ft | 438 kts | 353° |
| 2026-04-27 12:36 | 46.76861 | 8.96076 | 34164 ft | 437 kts | 353° |
| 2026-04-27 12:37 | 46.82892 | 8.95252 | 34173 ft | 438 kts | 353° |
| 2026-04-27 12:37 | 46.88956 | 8.94428 | 34179 ft | 438 kts | 353° |
| 2026-04-27 12:38 | 46.94041 | 8.93737 | 34180 ft | 438 kts | 353° |
| 2026-04-27 12:38 | 47.00080 | 8.92909 | 34175 ft | 438 kts | 352° |
| 2026-04-27 12:39 | 47.06157 | 8.92062 | 34186 ft | 439 kts | 352° |
| 2026-04-27 12:39 | 47.09154 | 8.91298 | 34182 ft | 436 kts | 341° |
| 2026-04-27 12:39 | 47.11951 | 8.89662 | 34186 ft | 432 kts | 330° |
| 2026-04-27 12:39 | 47.14446 | 8.87235 | 34183 ft | 430 kts | 319° |
| 2026-04-27 12:40 | 47.16557 | 8.84137 | 34165 ft | 429 kts | 308° |
| 2026-04-27 12:40 | 47.18196 | 8.80486 | 34168 ft | 428 kts | 296° |
| 2026-04-27 12:40 | 47.19344 | 8.76455 | 34163 ft | 428 kts | 291° |
| 2026-04-27 12:41 | 47.21437 | 8.68231 | 34172 ft | 429 kts | 291° |
| 2026-04-27 12:41 | 47.23520 | 8.59991 | 34178 ft | 430 kts | 290° |
| 2026-04-27 12:42 | 47.25595 | 8.51740 | 34181 ft | 430 kts | 290° |
| 2026-04-27 12:42 | 47.27673 | 8.43491 | 34181 ft | 430 kts | 290° |
| 2026-04-27 12:43 | 47.29747 | 8.35231 | 34182 ft | 429 kts | 290° |
| 2026-04-27 12:43 | 47.31804 | 8.27033 | 34185 ft | 429 kts | 290° |
| 2026-04-27 12:44 | 47.33867 | 8.18763 | 34187 ft | 429 kts | 290° |
| 2026-04-27 12:44 | 47.35908 | 8.10505 | 34184 ft | 428 kts | 290° |
| 2026-04-27 12:45 | 47.37940 | 8.02244 | 34185 ft | 428 kts | 290° |
| 2026-04-27 12:45 | 47.39970 | 7.94001 | 34184 ft | 427 kts | 290° |
| 2026-04-27 12:46 | 47.41990 | 7.85748 | 34183 ft | 427 kts | 289° |
| 2026-04-27 12:46 | 47.44003 | 7.77506 | 34186 ft | 427 kts | 289° |
| 2026-04-27 12:47 | 47.45993 | 7.69285 | 34186 ft | 426 kts | 289° |
| 2026-04-27 12:47 | 47.47611 | 7.60868 | 34188 ft | 426 kts | 284° |
| 2026-04-27 12:48 | 47.49025 | 7.52367 | 34189 ft | 425 kts | 284° |
| 2026-04-27 12:48 | 47.50443 | 7.43876 | 34188 ft | 425 kts | 284° |
| 2026-04-27 12:49 | 47.51857 | 7.35376 | 34191 ft | 425 kts | 283° |
| 2026-04-27 12:49 | 47.53262 | 7.26880 | 34191 ft | 424 kts | 284° |
| 2026-04-27 12:50 | 47.54655 | 7.18398 | 34191 ft | 424 kts | 283° |
| 2026-04-27 12:50 | 47.56032 | 7.09977 | 34189 ft | 423 kts | 283° |
| 2026-04-27 12:51 | 47.57409 | 7.01518 | 34185 ft | 422 kts | 283° |
| 2026-04-27 12:51 | 47.58776 | 6.93057 | 34189 ft | 422 kts | 283° |
| 2026-04-27 12:52 | 47.60140 | 6.84595 | 34190 ft | 422 kts | 283° |
| 2026-04-27 12:52 | 47.61498 | 6.76145 | 34188 ft | 421 kts | 283° |
| 2026-04-27 12:53 | 47.63511 | 6.63474 | 34189 ft | 420 kts | 283° |
| 2026-04-27 12:53 | 47.64841 | 6.55039 | 34190 ft | 420 kts | 283° |
| 2026-04-27 12:54 | 47.66167 | 6.46610 | 34190 ft | 419 kts | 283° |
| 2026-04-27 12:54 | 47.67476 | 6.38256 | 34192 ft | 418 kts | 283° |
| 2026-04-27 12:55 | 47.68783 | 6.29841 | 34193 ft | 418 kts | 283° |
| 2026-04-27 12:55 | 47.70367 | 6.21545 | 34191 ft | 417 kts | 287° |
| 2026-04-27 12:56 | 47.72203 | 6.13375 | 34192 ft | 417 kts | 288° |
| 2026-04-27 12:56 | 47.74024 | 6.05223 | 34191 ft | 416 kts | 287° |
| 2026-04-27 12:57 | 47.75764 | 5.97031 | 34192 ft | 415 kts | 286° |
| 2026-04-27 12:57 | 47.77468 | 5.88828 | 34191 ft | 415 kts | 286° |
| 2026-04-27 12:58 | 47.79174 | 5.80628 | 34194 ft | 415 kts | 286° |
| 2026-04-27 12:58 | 47.80865 | 5.72486 | 34193 ft | 414 kts | 286° |
| 2026-04-27 12:59 | 47.82559 | 5.64293 | 34195 ft | 414 kts | 286° |
| 2026-04-27 12:59 | 47.84257 | 5.56107 | 34194 ft | 414 kts | 286° |
| 2026-04-27 13:00 | 47.85944 | 5.47916 | 34194 ft | 413 kts | 285° |
| 2026-04-27 13:00 | 47.87615 | 5.39726 | 34193 ft | 413 kts | 285° |
| 2026-04-27 13:01 | 47.89289 | 5.31528 | 34190 ft | 413 kts | 285° |
| 2026-04-27 13:01 | 47.91627 | 5.23713 | 34193 ft | 417 kts | 301° |
| 2026-04-27 13:02 | 47.95405 | 5.17093 | 34189 ft | 420 kts | 309° |
| 2026-04-27 13:02 | 47.99330 | 5.10620 | 34189 ft | 421 kts | 308° |
| 2026-04-27 13:03 | 48.03254 | 5.04122 | 34198 ft | 421 kts | 308° |
| 2026-04-27 13:03 | 48.07149 | 4.97665 | 34197 ft | 421 kts | 308° |
| 2026-04-27 13:04 | 48.11077 | 4.91154 | 34201 ft | 421 kts | 308° |
| 2026-04-27 13:04 | 48.15001 | 4.84629 | 34191 ft | 421 kts | 308° |
| 2026-04-27 13:05 | 48.18917 | 4.78100 | 34201 ft | 421 kts | 308° |
| 2026-04-27 13:05 | 48.22825 | 4.71574 | 34199 ft | 421 kts | 308° |
| 2026-04-27 13:06 | 48.26729 | 4.65023 | 34201 ft | 420 kts | 307° |
| 2026-04-27 13:06 | 48.30839 | 4.58104 | 34199 ft | 420 kts | 307° |
| 2026-04-27 13:07 | 48.34490 | 4.51959 | 34203 ft | 420 kts | 307° |
| 2026-04-27 13:07 | 48.35149 | 4.50848 | 34200 ft | 420 kts | 307° |
| 2026-04-27 13:09 | 48.49660 | 4.26227 | 34201 ft | 421 kts | 307° |